createdAt,value
2018-02-15T00:00:07.322Z,21.92
2018-02-15T00:02:34.913Z,19.65
2018-02-15T00:05:02.513Z,22.17
2018-02-15T00:07:30.111Z,21.20
2018-02-15T00:09:58.454Z,22.27
2018-02-15T00:12:26.032Z,21.12
2018-02-15T00:14:53.711Z,21.15
2018-02-15T00:17:21.323Z,18.75
2018-02-15T00:19:48.889Z,20.95
2018-02-15T00:22:16.496Z,19.17
2018-02-15T00:24:44.851Z,20.48
2018-02-15T00:27:12.451Z,18.98
2018-02-15T00:29:40.786Z,21.50
2018-02-15T00:32:08.410Z,18.10
2018-02-15T00:34:36.011Z,17.87
2018-02-15T00:37:03.642Z,18.20
2018-02-15T00:39:31.200Z,15.93
2018-02-15T00:41:58.788Z,18.75
2018-02-15T00:44:26.398Z,18.45
2018-02-15T00:46:53.982Z,18.40
2018-02-15T00:49:21.589Z,18.12
2018-02-15T00:51:49.167Z,18.05
2018-02-15T00:54:17.528Z,19.60
2018-02-15T00:56:45.885Z,17.90
2018-02-15T00:59:13.501Z,18.50
2018-02-15T01:01:41.067Z,18.83
2018-02-15T01:04:08.636Z,18.35
2018-02-15T01:06:36.231Z,17.00
2018-02-15T01:09:03.816Z,19.05
2018-02-15T01:11:32.178Z,17.52
2018-02-15T01:13:59.748Z,18.12
2018-02-15T01:16:28.099Z,18.87
2018-02-15T01:18:55.704Z,18.45
2018-02-15T01:21:24.034Z,18.75
2018-02-15T01:23:51.641Z,17.70
2018-02-15T01:26:19.211Z,18.10
2018-02-15T01:28:46.832Z,17.85
2018-02-15T01:31:14.402Z,17.65
2018-02-15T01:33:42.008Z,16.77
2018-02-15T01:36:09.654Z,15.88
2018-02-15T01:38:37.239Z,16.50
2018-02-15T01:41:04.822Z,17.30
2018-02-15T01:43:32.405Z,15.95
2018-02-15T01:46:00.806Z,16.73
2018-02-15T01:48:28.430Z,16.50
2018-02-15T01:50:55.994Z,16.48
2018-02-15T01:53:23.618Z,15.00
2018-02-15T01:55:51.184Z,14.60
2018-02-15T01:58:18.781Z,16.30
2018-02-15T02:00:47.162Z,16.85
2018-02-15T02:03:15.582Z,14.02
2018-02-15T02:05:43.197Z,13.77
2018-02-15T02:08:11.590Z,14.15
2018-02-15T02:10:39.939Z,15.50
2018-02-15T02:13:07.536Z,16.98
2018-02-15T02:15:35.906Z,17.45
2018-02-15T02:18:04.252Z,16.75
2018-02-15T02:20:31.841Z,17.50
2018-02-15T02:23:00.191Z,16.05
2018-02-15T02:25:27.840Z,15.45
2018-02-15T02:27:55.534Z,14.73
2018-02-15T02:30:23.124Z,14.65
2018-02-15T02:32:50.763Z,15.38
2018-02-15T02:35:19.104Z,16.12
2018-02-15T02:37:46.754Z,15.32
2018-02-15T02:40:14.362Z,16.20
2018-02-15T02:42:42.709Z,14.75
2018-02-15T02:45:10.287Z,14.70
2018-02-15T02:47:37.863Z,15.52
2018-02-15T02:50:06.229Z,15.15
2018-02-15T02:52:33.798Z,18.02
2018-02-15T02:55:01.524Z,16.27
2018-02-15T02:57:29.895Z,15.90
2018-02-15T02:59:57.506Z,16.27
2018-02-15T03:02:25.838Z,15.18
2018-02-15T03:04:54.018Z,17.33
2018-02-15T03:07:22.349Z,15.50
2018-02-15T03:09:49.939Z,16.80
2018-02-15T03:12:17.535Z,15.10
2018-02-15T03:14:45.113Z,14.75
2018-02-15T03:17:13.502Z,15.25
2018-02-15T03:19:41.090Z,16.85
2018-02-15T03:22:08.691Z,15.73
2018-02-15T03:24:36.315Z,15.45
2018-02-15T03:27:03.906Z,15.40
2018-02-15T03:29:31.511Z,16.27
2018-02-15T03:31:59.083Z,17.17
2018-02-15T03:34:27.661Z,17.70
2018-02-15T03:36:55.244Z,16.33
2018-02-15T03:39:22.831Z,16.33
2018-02-15T03:41:50.415Z,16.08
2018-02-15T03:44:18.782Z,16.60
2018-02-15T03:46:47.139Z,16.00
2018-02-15T03:49:14.756Z,17.37
2018-02-15T03:51:42.328Z,16.02
2018-02-15T03:54:09.893Z,16.90
2018-02-15T03:56:37.476Z,16.23
2018-02-15T03:59:05.051Z,17.33
2018-02-15T04:01:32.622Z,17.55
2018-02-15T04:04:00.218Z,16.65
2018-02-15T04:06:27.813Z,17.85
2018-02-15T04:08:56.157Z,16.23
2018-02-15T04:11:23.765Z,17.37
2018-02-15T04:13:51.357Z,16.98
2018-02-15T04:16:19.706Z,15.80
2018-02-15T04:18:47.302Z,15.30
2018-02-15T04:21:14.883Z,16.37
2018-02-15T04:23:42.488Z,16.70
2018-02-15T04:26:10.055Z,15.03
2018-02-15T04:28:37.638Z,17.07
2018-02-15T04:31:05.979Z,14.37
2018-02-15T04:33:33.557Z,15.20
2018-02-15T04:36:01.155Z,15.17
2018-02-15T04:38:28.874Z,16.43
2018-02-15T04:40:56.470Z,13.13
2018-02-15T04:43:24.057Z,13.33
2018-02-15T04:45:51.637Z,14.90
2018-02-15T04:48:19.227Z,14.35
2018-02-15T04:50:47.562Z,14.27
2018-02-15T04:53:15.184Z,15.60
2018-02-15T04:55:43.528Z,15.10
2018-02-15T04:58:11.111Z,14.87
2018-02-15T05:00:39.522Z,14.60
2018-02-15T05:03:07.086Z,14.30
2018-02-15T05:05:34.690Z,15.60
2018-02-15T05:08:02.254Z,16.77
2018-02-15T05:10:29.874Z,14.30
2018-02-15T05:12:57.447Z,13.73
2018-02-15T05:15:25.026Z,14.23
2018-02-15T05:17:52.626Z,15.50
2018-02-15T05:20:20.198Z,15.13
2018-02-15T05:22:47.798Z,14.32
2018-02-15T05:25:15.378Z,14.20
2018-02-15T05:27:42.999Z,12.80
2018-02-15T05:30:10.561Z,14.80
2018-02-15T05:32:38.142Z,14.73
2018-02-15T05:35:05.732Z,14.37
2018-02-15T05:37:33.320Z,13.83
2018-02-15T05:40:00.899Z,13.90
2018-02-15T05:42:28.480Z,14.23
2018-02-15T05:44:56.069Z,13.77
2018-02-15T05:47:24.425Z,13.70
2018-02-15T05:49:52.060Z,13.17
2018-02-15T05:52:19.623Z,13.20
2018-02-15T05:54:47.226Z,12.57
2018-02-15T05:57:15.567Z,14.27
2018-02-15T05:59:43.157Z,13.47
2018-02-15T06:02:11.501Z,13.40
2018-02-15T06:04:39.123Z,13.60
2018-02-15T06:07:06.730Z,13.97
2018-02-15T06:09:34.367Z,16.90
2018-02-15T06:12:01.973Z,35.90
2018-02-15T06:14:29.623Z,35.20
2018-02-15T06:16:57.233Z,32.60
2018-02-15T06:19:24.852Z,20.37
2018-02-15T06:21:52.479Z,17.40
2018-02-15T06:24:20.870Z,15.97
2018-02-15T06:26:48.504Z,15.90
2018-02-15T06:29:16.192Z,15.83
2018-02-15T06:31:43.790Z,15.30
2018-02-15T06:34:12.163Z,14.70
2018-02-15T06:36:39.797Z,14.40
2018-02-15T06:39:07.597Z,14.53
2018-02-15T06:41:35.969Z,15.60
2018-02-15T06:44:03.595Z,16.50
2018-02-15T06:46:31.201Z,18.20
2018-02-15T06:48:59.628Z,13.03
2018-02-15T06:51:27.279Z,14.80
2018-02-15T06:53:54.919Z,15.23
2018-02-15T06:56:22.556Z,14.87
2018-02-15T06:58:50.173Z,14.83
2018-02-15T07:01:17.787Z,14.97
2018-02-15T07:03:46.171Z,14.03
2018-02-15T07:06:14.540Z,14.13
2018-02-15T07:08:42.171Z,13.33
2018-02-15T07:11:09.787Z,13.47
2018-02-15T07:13:37.394Z,13.77
2018-02-15T07:16:05.019Z,14.00
2018-02-15T07:18:32.616Z,14.87
2018-02-15T07:21:00.250Z,14.20
2018-02-15T07:23:27.860Z,22.00
2018-02-15T07:25:55.496Z,17.20
2018-02-15T07:28:23.113Z,16.00
2018-02-15T07:30:50.734Z,17.30
2018-02-15T07:33:18.340Z,17.37
2018-02-15T07:35:45.983Z,15.60
2018-02-15T07:38:14.347Z,17.03
2018-02-15T07:40:41.953Z,15.60
2018-02-15T07:43:09.588Z,15.00
2018-02-15T07:45:37.317Z,15.97
2018-02-15T07:48:05.736Z,14.50
2018-02-15T07:50:33.341Z,14.47
2018-02-15T07:53:00.965Z,14.67
2018-02-15T07:55:28.577Z,15.10
2018-02-15T07:57:56.244Z,14.23
2018-02-15T08:00:23.834Z,13.80
2018-02-15T08:02:52.200Z,13.93
2018-02-15T08:05:20.608Z,16.80
2018-02-15T08:07:48.224Z,14.60
2018-02-15T08:10:15.844Z,15.53
2018-02-15T08:12:44.481Z,15.67
2018-02-15T08:15:12.107Z,13.97
2018-02-15T08:17:39.749Z,13.90
2018-02-15T08:20:07.323Z,15.60
2018-02-15T08:22:34.943Z,16.83
2018-02-15T08:25:03.301Z,15.40
2018-02-15T08:27:30.924Z,16.00
2018-02-15T08:29:58.543Z,16.83
2018-02-15T08:32:26.147Z,14.50
2018-02-15T08:34:53.776Z,17.33
2018-02-15T08:37:21.413Z,16.60
2018-02-15T08:39:49.788Z,17.10
2018-02-15T08:42:18.207Z,16.93
2018-02-15T08:44:45.812Z,18.83
2018-02-15T08:47:13.429Z,17.23
2018-02-15T08:49:41.015Z,17.73
2018-02-15T08:52:08.624Z,18.10
2018-02-15T08:54:37.025Z,17.67
2018-02-15T08:57:04.639Z,18.30
2018-02-15T08:59:32.266Z,17.13
2018-02-15T09:01:59.854Z,18.00
2018-02-15T09:04:27.501Z,16.70
2018-02-15T09:06:55.121Z,16.80
2018-02-15T09:09:22.777Z,16.30
2018-02-15T09:11:51.145Z,14.57
2018-02-15T09:14:19.551Z,15.37
2018-02-15T09:16:47.166Z,15.13
2018-02-15T09:19:14.763Z,15.40
2018-02-15T09:21:42.397Z,15.53
2018-02-15T09:24:10.855Z,17.80
2018-02-15T09:26:39.274Z,16.60
2018-02-15T09:31:41.442Z,16.87
2018-02-15T09:34:09.860Z,16.20
2018-02-15T09:36:37.472Z,17.00
2018-02-15T09:39:05.108Z,17.77
2018-02-15T09:41:32.705Z,18.33
2018-02-15T09:44:01.123Z,17.53
2018-02-15T09:46:28.724Z,17.03
2018-02-15T09:48:56.327Z,16.90
2018-02-15T09:51:23.946Z,20.37
2018-02-15T09:53:51.553Z,16.30
2018-02-15T09:56:19.783Z,15.90
2018-02-15T09:58:47.407Z,16.97
2018-02-15T10:01:15.020Z,16.90
2018-02-15T10:03:42.642Z,16.23
2018-02-15T10:06:10.256Z,16.00
2018-02-15T10:08:37.904Z,15.27
2018-02-15T10:11:06.294Z,15.40
2018-02-15T10:13:34.705Z,14.50
2018-02-15T10:16:02.335Z,15.17
2018-02-15T10:18:30.717Z,15.03
2018-02-15T10:20:59.117Z,14.27
2018-02-15T10:23:26.884Z,16.97
2018-02-15T10:25:54.512Z,15.33
2018-02-15T10:28:22.880Z,15.43
2018-02-15T10:30:51.283Z,16.60
2018-02-15T10:33:18.897Z,16.33
2018-02-15T10:35:46.542Z,16.40
2018-02-15T10:38:14.197Z,17.03
2018-02-15T10:40:41.807Z,16.00
2018-02-15T10:43:10.211Z,15.50
2018-02-15T10:45:37.866Z,15.20
2018-02-15T10:48:06.282Z,15.07
2018-02-15T10:50:33.900Z,14.60
2018-02-15T10:53:02.342Z,14.73
2018-02-15T10:55:29.992Z,13.63
2018-02-15T10:57:57.616Z,13.03
2018-02-15T11:03:31.427Z,11.70
2018-02-15T11:06:00.621Z,13.30
2018-02-15T11:08:29.024Z,12.40
2018-02-15T11:10:56.649Z,12.43
2018-02-15T11:13:24.255Z,12.23
2018-02-15T11:15:51.887Z,13.93
2018-02-15T11:18:19.494Z,12.30
2018-02-15T11:20:47.132Z,11.87
2018-02-15T11:23:14.749Z,11.90
2018-02-15T11:25:42.385Z,12.27
2018-02-15T11:28:10.013Z,12.97
2018-02-15T11:30:37.647Z,13.80
2018-02-15T11:33:06.017Z,13.20
2018-02-15T11:35:34.416Z,13.03
2018-02-15T11:38:02.058Z,14.40
2018-02-15T11:40:29.697Z,14.47
2018-02-15T11:42:57.340Z,12.10
2018-02-15T11:45:24.960Z,14.10
2018-02-15T11:47:53.341Z,16.87
2018-02-15T11:50:21.747Z,15.30
2018-02-15T11:52:49.378Z,15.60
2018-02-15T11:55:17.761Z,14.07
2018-02-15T11:57:45.384Z,12.93
2018-02-15T12:00:13.048Z,11.63
2018-02-15T12:02:40.660Z,14.00
2018-02-15T12:05:08.265Z,12.93
2018-02-15T12:07:35.880Z,12.10
2018-02-15T12:10:03.524Z,13.50
2018-02-15T12:12:31.914Z,14.20
2018-02-15T12:14:59.607Z,14.87
2018-02-15T12:17:27.219Z,13.00
2018-02-15T12:19:55.586Z,14.07
2018-02-15T12:22:23.228Z,13.50
2018-02-15T12:24:50.819Z,12.70
2018-02-15T12:27:20.096Z,14.40
2018-02-15T12:29:47.757Z,14.23
2018-02-15T12:32:15.377Z,13.07
2018-02-15T12:34:42.997Z,15.43
2018-02-15T12:37:11.374Z,14.53
2018-02-15T12:39:38.995Z,14.70
2018-02-15T12:42:06.587Z,14.87
2018-02-15T12:44:34.214Z,14.40
2018-02-15T12:47:01.842Z,14.80
2018-02-15T12:49:29.453Z,13.87
2018-02-15T12:51:57.107Z,15.23
2018-02-15T12:54:24.766Z,15.00
2018-02-15T12:56:52.395Z,13.53
2018-02-15T12:59:20.019Z,14.17
2018-02-15T13:01:47.626Z,14.20
2018-02-15T13:04:20.862Z,16.70
2018-02-15T13:06:48.477Z,15.17
2018-02-15T13:09:16.096Z,15.00
2018-02-15T13:11:44.475Z,14.67
2018-02-15T13:14:12.852Z,16.17
2018-02-15T13:16:51.385Z,16.80
2018-02-15T13:19:31.578Z,16.57
2018-02-15T13:21:59.215Z,16.93
2018-02-15T13:24:27.220Z,17.23
2018-02-15T13:26:54.837Z,15.80
2018-02-15T13:29:22.466Z,17.30
2018-02-15T13:31:50.111Z,16.80
2018-02-15T13:34:17.726Z,16.30
2018-02-15T13:36:45.364Z,16.30
2018-02-15T13:39:13.755Z,15.60
2018-02-15T13:41:42.110Z,15.97
2018-02-15T13:44:09.745Z,16.90
2018-02-15T13:46:37.343Z,17.60
2018-02-15T13:49:05.776Z,17.20
2018-02-15T13:51:33.375Z,17.40
2018-02-15T13:54:00.974Z,16.77
2018-02-15T13:56:28.601Z,18.10
2018-02-15T13:58:56.975Z,16.70
2018-02-15T14:01:25.370Z,15.33
2018-02-15T14:03:53.779Z,17.10
2018-02-15T14:06:21.382Z,15.40
2018-02-15T14:08:49.017Z,16.00
2018-02-15T14:11:16.618Z,17.90
2018-02-15T14:13:44.251Z,18.07
2018-02-15T14:16:12.419Z,18.00
2018-02-15T14:18:40.066Z,17.13
2018-02-15T14:21:07.676Z,17.93
2018-02-15T14:23:35.348Z,18.97
2018-02-15T14:26:03.733Z,16.83
2018-02-15T14:28:32.167Z,17.00
2018-02-15T14:30:59.787Z,16.87
2018-02-15T14:33:27.412Z,17.30
2018-02-15T14:35:55.050Z,17.50
2018-02-15T14:38:22.649Z,18.80
2018-02-15T14:40:51.039Z,18.43
2018-02-15T14:43:19.407Z,17.40
2018-02-15T14:45:47.812Z,19.60
2018-02-15T14:48:15.424Z,16.90
2018-02-15T14:50:43.111Z,20.37
2018-02-15T14:53:10.765Z,20.17
2018-02-15T14:55:39.178Z,19.10
2018-02-15T14:58:06.786Z,19.73
2018-02-15T15:00:34.405Z,20.80
2018-02-15T15:03:02.022Z,21.30
2018-02-15T15:05:29.615Z,21.53
2018-02-15T15:07:57.232Z,22.43
2018-02-15T15:10:24.970Z,22.67
2018-02-15T15:12:52.579Z,24.50
2018-02-15T15:15:20.967Z,22.67
2018-02-15T15:17:49.335Z,23.30
2018-02-15T15:20:17.739Z,21.63
2018-02-15T15:22:45.446Z,22.37
2018-02-15T15:25:13.061Z,24.17
2018-02-15T15:27:40.686Z,23.40
2018-02-15T15:30:08.628Z,24.10
2018-02-15T15:32:36.266Z,20.90
2018-02-15T15:35:03.883Z,23.23
2018-02-15T15:37:32.206Z,22.07
2018-02-15T15:39:59.808Z,20.90
2018-02-15T15:42:27.452Z,22.33
2018-02-15T15:44:55.085Z,24.30
2018-02-15T15:47:22.702Z,23.50
2018-02-15T15:49:51.204Z,26.20
2018-02-15T15:52:18.817Z,26.53
2018-02-15T15:54:46.422Z,26.60
2018-02-15T15:57:14.855Z,27.47
2018-02-15T15:59:42.480Z,24.43
2018-02-15T16:02:10.108Z,26.27
2018-02-15T16:04:37.763Z,26.50
2018-02-15T16:07:05.409Z,25.83
2018-02-15T16:09:33.018Z,25.20
2018-02-15T16:12:00.669Z,25.13
2018-02-15T16:14:28.308Z,25.77
2018-02-15T16:16:55.927Z,26.17
2018-02-15T16:19:23.601Z,26.77
2018-02-15T16:21:51.231Z,30.70
2018-02-15T16:24:20.786Z,32.13
2018-02-15T16:26:48.418Z,25.10
2018-02-15T16:29:16.066Z,25.30
2018-02-15T16:31:43.723Z,22.10
2018-02-15T16:34:11.348Z,28.50
2018-02-15T16:36:39.724Z,27.73
2018-02-15T16:39:08.323Z,27.87
2018-02-15T16:41:36.735Z,27.93
2018-02-15T16:44:04.424Z,27.60
2018-02-15T16:46:32.032Z,29.90
2018-02-15T16:49:00.435Z,29.00
2018-02-15T16:51:28.087Z,29.53
2018-02-15T16:53:56.475Z,27.27
2018-02-15T16:56:24.109Z,30.10
2018-02-15T16:58:53.391Z,28.27
2018-02-15T17:01:21.016Z,32.97
2018-02-15T17:03:48.619Z,28.73
2018-02-15T17:06:17.025Z,32.80
2018-02-15T17:08:44.631Z,28.60
2018-02-15T17:11:12.273Z,27.20
2018-02-15T17:13:39.872Z,26.57
2018-02-15T17:16:07.604Z,27.27
2018-02-15T17:18:35.260Z,28.23
2018-02-15T17:21:03.878Z,28.27
2018-02-15T17:23:32.095Z,31.40
2018-02-15T17:26:00.663Z,29.60
2018-02-15T17:28:29.018Z,25.90
2018-02-15T17:30:56.635Z,25.57
2018-02-15T17:33:24.253Z,25.20
2018-02-15T17:35:52.463Z,24.40
2018-02-15T17:38:20.065Z,28.87
2018-02-15T17:40:47.701Z,29.80
2018-02-15T17:43:15.356Z,31.20
2018-02-15T17:45:43.033Z,31.60
2018-02-15T17:48:10.659Z,30.23
2018-02-15T17:50:38.304Z,52.40
2018-02-15T17:53:06.727Z,46.80
2018-02-15T17:55:34.319Z,55.13
2018-02-15T17:58:01.942Z,51.43
2018-02-15T18:00:29.538Z,49.67
2018-02-15T18:02:57.173Z,51.67
2018-02-15T18:05:24.774Z,45.90
2018-02-15T18:07:53.156Z,41.97
2018-02-15T18:10:21.607Z,37.47
2018-02-15T18:12:49.225Z,36.17
2018-02-15T18:15:16.849Z,32.00
2018-02-15T18:17:44.670Z,42.53
2018-02-15T18:20:12.314Z,41.00
2018-02-15T18:22:39.928Z,31.70
2018-02-15T18:25:07.590Z,31.60
2018-02-15T18:27:35.190Z,28.10
2018-02-15T18:30:02.798Z,30.80
2018-02-15T18:32:30.429Z,31.87
2018-02-15T18:34:58.029Z,31.60
2018-02-15T18:37:25.659Z,30.03
2018-02-15T18:39:53.264Z,30.73
2018-02-15T18:42:20.878Z,31.47
2018-02-15T18:44:48.475Z,31.43
2018-02-15T18:47:16.096Z,30.30
2018-02-15T18:49:43.732Z,26.80
2018-02-15T18:52:12.106Z,24.93
2018-02-15T18:54:40.510Z,32.00
2018-02-15T18:57:08.115Z,33.93
2018-02-15T18:59:35.772Z,32.07
2018-02-15T19:02:03.399Z,34.50
2018-02-15T19:04:31.015Z,34.43
2018-02-15T19:07:00.156Z,30.83
2018-02-15T19:09:27.812Z,27.90
2018-02-15T19:11:55.465Z,27.73
2018-02-15T19:14:23.941Z,31.30
2018-02-15T19:16:51.571Z,30.17
2018-02-15T19:19:19.179Z,26.67
2018-02-15T19:21:46.802Z,28.73
2018-02-15T19:24:15.190Z,28.87
2018-02-15T19:26:43.589Z,32.07
2018-02-15T19:29:11.220Z,30.20
2018-02-15T19:31:39.588Z,28.30
2018-02-15T19:34:07.224Z,29.27
2018-02-15T19:36:34.873Z,28.67
2018-02-15T19:39:02.488Z,27.57
2018-02-15T19:41:30.889Z,31.23
2018-02-15T19:43:58.492Z,30.83
2018-02-15T19:46:26.117Z,28.17
2018-02-15T19:48:53.721Z,30.13
2018-02-15T19:51:21.388Z,29.30
2018-02-15T19:53:48.995Z,32.17
2018-02-15T19:56:16.645Z,29.53
2018-02-15T19:58:44.261Z,31.07
2018-02-15T20:01:11.882Z,28.03
2018-02-15T20:03:39.509Z,30.20
2018-02-15T20:06:07.889Z,28.47
2018-02-15T20:08:37.217Z,30.13
2018-02-15T20:11:04.922Z,29.80
2018-02-15T20:13:32.616Z,32.10
2018-02-15T20:16:01.012Z,31.47
2018-02-15T20:18:28.652Z,30.67
2018-02-15T20:20:57.040Z,33.10
2018-02-15T20:23:25.418Z,31.97
2018-02-15T20:25:59.529Z,38.27
2018-02-15T20:28:27.930Z,32.07
2018-02-15T20:30:55.543Z,29.37
2018-02-15T20:33:23.202Z,29.63
2018-02-15T20:35:50.815Z,30.67
2018-02-15T20:38:24.189Z,28.70
2018-02-15T20:40:52.585Z,31.70
2018-02-15T20:43:20.239Z,32.37
2018-02-15T20:45:48.649Z,31.47
2018-02-15T20:48:16.302Z,31.87
2018-02-15T20:50:49.484Z,30.63
2018-02-15T20:53:22.874Z,30.20
2018-02-15T20:55:50.483Z,30.10
2018-02-15T20:58:18.127Z,32.60
2018-02-15T21:00:45.730Z,29.63
2018-02-15T21:03:13.363Z,30.00
2018-02-15T21:05:41.978Z,27.40
2018-02-15T21:08:09.615Z,28.90
2018-02-15T21:10:37.260Z,29.57
2018-02-15T21:13:04.867Z,37.40
2018-02-15T21:15:33.280Z,48.70
2018-02-15T21:18:00.883Z,36.90
2018-02-15T21:20:28.524Z,37.00
2018-02-15T21:22:56.157Z,33.50
2018-02-15T21:25:23.763Z,36.03
2018-02-15T21:27:51.415Z,40.37
2018-02-15T21:30:19.795Z,39.23
2018-02-15T21:32:47.442Z,28.57
2018-02-15T21:35:15.866Z,29.30
2018-02-15T21:37:44.280Z,28.90
2018-02-15T21:40:11.879Z,26.70
2018-02-15T21:42:39.488Z,28.40
2018-02-15T21:45:07.114Z,30.80
2018-02-15T21:47:34.772Z,30.17
2018-02-15T21:50:02.372Z,33.37
2018-02-15T21:52:29.993Z,33.30
2018-02-15T21:54:57.648Z,32.00
2018-02-15T21:57:25.243Z,32.93
2018-02-15T21:59:53.663Z,35.57
2018-02-15T22:02:21.277Z,32.50
2018-02-15T22:04:49.659Z,31.17
2018-02-15T22:07:18.017Z,30.73
2018-02-15T22:09:45.660Z,29.87
2018-02-15T22:12:13.283Z,33.33
2018-02-15T22:14:40.894Z,30.70
2018-02-15T22:17:08.532Z,32.43
2018-02-15T22:19:36.100Z,29.60
2018-02-15T22:22:03.686Z,28.57
2018-02-15T22:24:31.283Z,29.00
2018-02-15T22:26:58.882Z,28.40
2018-02-15T22:29:26.454Z,28.30
2018-02-15T22:31:54.022Z,26.33
2018-02-15T22:34:21.614Z,26.03
2018-02-15T22:36:49.182Z,31.40
2018-02-15T22:39:16.823Z,32.20
2018-02-15T22:41:45.154Z,39.77
2018-02-15T22:44:12.744Z,42.50
2018-02-15T22:46:40.330Z,31.87
2018-02-15T22:49:08.698Z,31.77
2018-02-15T22:51:37.030Z,49.30
2018-02-15T22:54:04.610Z,51.33
2018-02-15T22:56:32.999Z,32.53
2018-02-15T22:59:00.586Z,33.87
2018-02-15T23:01:28.916Z,35.67
2018-02-15T23:03:56.538Z,33.37
2018-02-15T23:06:24.122Z,30.37
2018-02-15T23:08:51.677Z,34.80
2018-02-15T23:11:19.273Z,30.33
2018-02-15T23:13:46.882Z,25.97
2018-02-15T23:16:14.483Z,32.37
2018-02-15T23:18:42.076Z,41.93
2018-02-15T23:21:10.425Z,94.27
2018-02-15T23:23:38.036Z,77.10
2018-02-15T23:26:05.647Z,47.60
2018-02-15T23:28:33.235Z,40.90
2018-02-15T23:31:01.590Z,41.57
2018-02-15T23:33:30.200Z,39.43
2018-02-15T23:35:58.556Z,38.27
2018-02-15T23:38:26.127Z,36.07
2018-02-15T23:40:54.511Z,29.53
2018-02-15T23:43:22.891Z,26.53
2018-02-15T23:45:51.227Z,27.50
2018-02-15T23:48:18.847Z,28.33
2018-02-15T23:50:46.488Z,28.20
2018-02-15T23:53:14.836Z,32.63
2018-02-15T23:55:42.406Z,39.60
2018-02-15T23:58:10.018Z,28.90
